createdAt,value
2022-10-26T00:02:21.844Z,16.20
2022-10-26T00:04:49.324Z,16.23
2022-10-26T00:07:16.685Z,13.00
2022-10-26T00:09:44.153Z,12.13
2022-10-26T00:12:11.495Z,12.30
2022-10-26T00:14:38.894Z,17.75
2022-10-26T00:17:07.652Z,13.77
2022-10-26T00:19:35.175Z,12.38
2022-10-26T00:22:02.549Z,12.80
2022-10-26T00:24:29.900Z,12.38
2022-10-26T00:26:57.288Z,11.80
2022-10-26T00:29:24.608Z,13.23
2022-10-26T00:31:51.980Z,11.70
2022-10-26T00:34:20.666Z,12.45
2022-10-26T00:36:48.012Z,12.07
2022-10-26T00:39:15.365Z,10.93
2022-10-26T00:41:42.711Z,13.55
2022-10-26T00:44:29.798Z,13.93
2022-10-26T00:46:58.862Z,12.05
2022-10-26T00:49:27.663Z,15.55
2022-10-26T00:51:55.091Z,12.90
2022-10-26T00:54:22.701Z,19.00
2022-10-26T00:56:51.554Z,11.75
2022-10-26T00:59:19.178Z,11.85
2022-10-26T01:01:47.879Z,13.80
2022-10-26T01:04:15.717Z,13.27
2022-10-26T01:06:44.424Z,13.48
2022-10-26T01:09:12.123Z,12.30
2022-10-26T01:11:39.552Z,11.05
2022-10-26T01:14:08.807Z,12.05
2022-10-26T01:16:45.500Z,10.90
2022-10-26T01:19:25.935Z,9.43
2022-10-26T01:21:56.155Z,10.90
2022-10-26T01:24:29.884Z,9.63
2022-10-26T01:27:09.014Z,11.88
2022-10-26T01:29:52.776Z,11.88
2022-10-26T01:32:24.886Z,12.75
2022-10-26T01:34:54.795Z,12.25
2022-10-26T01:37:25.260Z,14.88
2022-10-26T01:39:54.921Z,11.95
2022-10-26T01:42:23.322Z,11.68
2022-10-26T01:44:53.651Z,13.55
2022-10-26T01:47:24.410Z,11.73
2022-10-26T01:49:53.332Z,10.70
2022-10-26T01:52:20.767Z,11.15
2022-10-26T01:54:48.479Z,9.82
2022-10-26T01:57:19.049Z,13.02
2022-10-26T02:00:07.380Z,14.43
2022-10-26T02:02:50.917Z,12.75
2022-10-26T02:05:26.910Z,10.90
2022-10-26T02:08:00.788Z,10.57
2022-10-26T02:10:33.486Z,11.68
2022-10-26T02:13:02.798Z,10.75
2022-10-26T02:15:39.074Z,11.57
2022-10-26T02:18:11.979Z,10.32
2022-10-26T02:20:40.841Z,14.80
2022-10-26T02:23:08.927Z,8.95
2022-10-26T02:25:37.878Z,11.00
2022-10-26T02:28:07.638Z,9.00
2022-10-26T02:30:36.052Z,11.05
2022-10-26T02:33:04.123Z,8.85
2022-10-26T02:35:33.969Z,9.63
2022-10-26T02:38:02.344Z,10.32
2022-10-26T02:40:30.241Z,10.93
2022-10-26T02:43:00.607Z,13.50
2022-10-26T02:45:29.843Z,9.40
2022-10-26T02:47:57.640Z,15.10
2022-10-26T02:50:28.118Z,9.63
2022-10-26T02:53:02.189Z,12.43
2022-10-26T02:55:31.714Z,10.13
2022-10-26T02:58:00.635Z,11.90
2022-10-26T03:00:28.168Z,9.98
2022-10-26T03:02:57.599Z,9.85
2022-10-26T03:05:26.077Z,10.30
2022-10-26T03:07:53.581Z,9.95
2022-10-26T03:10:22.598Z,9.07
2022-10-26T03:12:50.418Z,10.18
2022-10-26T03:15:18.003Z,8.98
2022-10-26T03:17:45.512Z,8.65
2022-10-26T03:20:13.036Z,10.95
2022-10-26T03:22:40.427Z,10.32
2022-10-26T03:27:37.908Z,10.77
2022-10-26T03:30:05.942Z,9.90
2022-10-26T03:32:33.299Z,9.50
2022-10-26T03:35:00.668Z,10.32
2022-10-26T03:37:28.367Z,11.80
2022-10-26T03:39:55.864Z,10.23
2022-10-26T03:42:23.198Z,10.55
2022-10-26T03:44:51.920Z,14.93
2022-10-26T03:47:19.339Z,14.48
2022-10-26T03:49:46.942Z,9.70
2022-10-26T03:52:14.317Z,10.63
2022-10-26T03:54:41.609Z,12.13
2022-10-26T03:57:08.947Z,9.52
2022-10-26T03:59:37.128Z,9.90
2022-10-26T04:02:05.833Z,7.32
2022-10-26T04:04:33.268Z,8.55
2022-10-26T04:07:00.696Z,8.13
2022-10-26T04:09:28.027Z,7.18
2022-10-26T04:11:55.423Z,8.40
2022-10-26T04:14:22.788Z,8.02
2022-10-26T04:16:50.242Z,8.25
2022-10-26T04:19:18.971Z,7.95
2022-10-26T04:21:46.371Z,7.70
2022-10-26T04:24:13.907Z,7.60
2022-10-26T04:26:41.281Z,12.10
2022-10-26T04:29:09.254Z,7.75
2022-10-26T04:31:36.673Z,10.43
2022-10-26T04:34:04.131Z,8.48
2022-10-26T04:36:32.907Z,11.32
2022-10-26T04:39:00.288Z,11.73
2022-10-26T04:41:27.616Z,9.50
2022-10-26T04:43:54.995Z,8.68
2022-10-26T04:46:22.314Z,8.35
2022-10-26T04:48:49.653Z,9.00
2022-10-26T04:51:17.194Z,9.00
2022-10-26T04:53:45.923Z,10.65
2022-10-26T04:56:13.318Z,9.75
2022-10-26T04:58:40.712Z,9.68
2022-10-26T05:01:08.220Z,14.48
2022-10-26T05:03:35.743Z,17.33
2022-10-26T05:06:03.105Z,12.75
2022-10-26T05:08:30.645Z,11.70
2022-10-26T05:10:59.349Z,12.98
2022-10-26T05:15:58.988Z,10.85
2022-10-26T05:18:26.358Z,10.68
2022-10-26T05:20:53.756Z,10.05
2022-10-26T05:23:21.366Z,13.43
2022-10-26T05:25:49.074Z,11.93
2022-10-26T05:28:18.879Z,13.30
2022-10-26T05:30:46.867Z,13.55
2022-10-26T05:33:14.656Z,12.13
2022-10-26T05:35:42.102Z,10.32
2022-10-26T05:38:10.099Z,12.40
2022-10-26T05:40:37.615Z,11.35
2022-10-26T05:43:05.127Z,13.48
2022-10-26T05:45:33.803Z,13.50
2022-10-26T05:48:02.887Z,14.00
2022-10-26T05:50:30.728Z,13.45
2022-10-26T05:52:58.128Z,13.18
2022-10-26T05:55:25.850Z,11.25
2022-10-26T05:57:53.542Z,15.73
2022-10-26T06:00:21.882Z,11.43
2022-10-26T06:02:57.998Z,11.15
2022-10-26T06:05:27.007Z,11.93
2022-10-26T06:07:54.662Z,12.70
2022-10-26T06:10:22.538Z,11.13
2022-10-26T06:12:50.534Z,15.10
2022-10-26T06:15:20.126Z,11.27
2022-10-26T06:17:53.760Z,9.90
2022-10-26T06:20:32.687Z,13.98
2022-10-26T06:23:06.766Z,11.48
2022-10-26T06:25:40.012Z,9.63
2022-10-26T06:28:15.359Z,11.15
2022-10-26T06:30:43.718Z,12.77
2022-10-26T06:33:24.937Z,11.10
2022-10-26T06:36:01.350Z,10.68
2022-10-26T06:38:31.148Z,11.90
2022-10-26T06:40:59.793Z,11.05
2022-10-26T06:43:27.923Z,12.15
2022-10-26T06:45:57.932Z,12.15
2022-10-26T06:48:26.425Z,12.75
2022-10-26T06:50:54.458Z,14.00
2022-10-26T06:53:26.392Z,17.55
2022-10-26T06:55:54.108Z,15.60
2022-10-26T06:58:22.711Z,19.52
2022-10-26T07:00:51.034Z,13.25
2022-10-26T07:03:18.371Z,11.90
2022-10-26T07:05:46.009Z,13.35
2022-10-26T07:08:13.499Z,14.48
2022-10-26T07:10:42.768Z,15.02
2022-10-26T07:13:11.029Z,11.75
2022-10-26T07:15:38.705Z,12.25
2022-10-26T07:18:06.718Z,12.13
2022-10-26T07:20:36.461Z,12.05
2022-10-26T07:23:03.867Z,14.57
2022-10-26T07:25:31.270Z,13.82
2022-10-26T07:28:00.441Z,18.85
2022-10-26T07:30:27.794Z,14.52
2022-10-26T07:32:59.535Z,13.02
2022-10-26T07:35:26.890Z,13.80
2022-10-26T07:37:57.002Z,12.68
2022-10-26T07:40:24.356Z,11.05
2022-10-26T07:42:52.404Z,13.68
2022-10-26T07:45:21.409Z,15.52
2022-10-26T07:47:50.241Z,17.00
2022-10-26T07:50:17.635Z,16.52
2022-10-26T07:52:45.045Z,14.60
2022-10-26T07:55:12.786Z,16.08
2022-10-26T07:57:40.199Z,16.88
2022-10-26T08:00:09.139Z,12.70
2022-10-26T08:02:37.866Z,14.23
2022-10-26T08:05:05.637Z,16.83
2022-10-26T08:07:33.043Z,14.15
2022-10-26T08:10:00.736Z,13.93
2022-10-26T08:12:28.091Z,17.00
2022-10-26T08:14:55.464Z,14.85
2022-10-26T08:17:22.969Z,11.85
2022-10-26T08:19:51.675Z,12.68
2022-10-26T08:22:19.114Z,15.68
2022-10-26T08:24:46.863Z,11.68
2022-10-26T08:27:14.893Z,15.07
2022-10-26T08:29:42.327Z,14.13
2022-10-26T08:32:09.703Z,14.57
2022-10-26T08:34:37.062Z,14.70
2022-10-26T08:37:05.812Z,15.15
2022-10-26T08:39:33.200Z,16.83
2022-10-26T08:42:03.900Z,18.45
2022-10-26T08:44:35.532Z,15.80
2022-10-26T08:47:06.912Z,15.55
2022-10-26T08:49:39.520Z,13.80
2022-10-26T08:52:10.412Z,16.75
2022-10-26T08:54:39.667Z,16.67
2022-10-26T08:57:12.968Z,14.23
2022-10-26T08:59:44.839Z,17.15
2022-10-26T09:02:13.280Z,16.75
2022-10-26T09:04:40.907Z,17.67
2022-10-26T09:07:13.950Z,21.23
2022-10-26T09:09:46.876Z,15.20
2022-10-26T09:12:19.413Z,26.48
2022-10-26T09:14:50.916Z,16.35
2022-10-26T09:17:23.272Z,16.05
2022-10-26T09:20:05.523Z,17.40
2022-10-26T09:22:38.413Z,18.30
2022-10-26T09:25:09.679Z,16.52
2022-10-26T09:27:40.415Z,17.00
2022-10-26T09:30:14.118Z,18.25
2022-10-26T09:32:44.627Z,16.55
2022-10-26T09:35:15.486Z,17.13
2022-10-26T09:40:17.166Z,14.20
2022-10-26T09:42:46.440Z,14.57
2022-10-26T09:45:16.273Z,15.63
2022-10-26T09:47:45.991Z,11.50
2022-10-26T09:50:23.216Z,12.32
2022-10-26T09:52:50.737Z,11.35
2022-10-26T09:55:20.802Z,13.30
2022-10-26T09:57:50.263Z,13.05
2022-10-26T10:00:19.142Z,9.10
2022-10-26T10:02:48.852Z,9.18
2022-10-26T10:05:49.878Z,13.00
2022-10-26T10:08:16.321Z,7.60
2022-10-26T10:10:58.536Z,11.82
2022-10-26T10:13:28.486Z,10.90
2022-10-26T10:15:56.324Z,6.50
2022-10-26T10:18:24.475Z,5.95
2022-10-26T10:20:53.404Z,9.02
2022-10-26T10:23:28.879Z,7.55
2022-10-26T10:25:59.962Z,9.40
2022-10-26T10:28:28.962Z,5.72
2022-10-26T10:30:59.368Z,10.95
2022-10-26T10:33:33.702Z,6.93
2022-10-26T10:36:01.638Z,5.57
2022-10-26T10:38:29.058Z,8.45
2022-10-26T10:40:57.475Z,9.00
2022-10-26T10:43:25.210Z,6.95
2022-10-26T10:45:59.382Z,5.45
2022-10-26T10:48:28.406Z,6.20
2022-10-26T10:50:57.079Z,7.68
2022-10-26T10:53:26.697Z,10.18
2022-10-26T10:56:01.586Z,5.90
2022-10-26T10:58:33.976Z,6.38
2022-10-26T11:01:02.951Z,7.57
2022-10-26T11:03:34.761Z,4.53
2022-10-26T11:06:06.070Z,4.40
2022-10-26T11:08:37.361Z,19.80
2022-10-26T11:11:06.927Z,5.57
2022-10-26T11:13:36.626Z,5.53
2022-10-26T11:16:07.181Z,5.25
2022-10-26T11:18:37.008Z,4.53
2022-10-26T11:21:07.881Z,4.82
2022-10-26T11:23:39.057Z,4.63
2022-10-26T11:26:10.854Z,5.38
2022-10-26T11:28:41.436Z,8.38
2022-10-26T11:31:11.921Z,7.05
2022-10-26T11:36:09.329Z,3.30
2022-10-26T11:38:46.636Z,4.40
2022-10-26T11:41:26.288Z,2.88
2022-10-26T11:43:55.994Z,4.70
2022-10-26T11:46:27.759Z,4.60
2022-10-26T11:48:57.198Z,4.18
2022-10-26T11:51:34.577Z,5.88
2022-10-26T11:54:04.520Z,4.72
2022-10-26T11:56:33.764Z,4.55
2022-10-26T12:01:35.300Z,3.63
2022-10-26T12:04:03.955Z,3.28
2022-10-26T12:06:33.153Z,4.35
2022-10-26T12:09:04.254Z,2.72
2022-10-26T12:11:36.902Z,2.53
2022-10-26T12:14:06.089Z,3.20
2022-10-26T12:16:42.375Z,3.67
2022-10-26T12:19:13.317Z,6.72
2022-10-26T12:21:42.292Z,5.88
2022-10-26T12:24:24.524Z,7.78
2022-10-26T12:26:52.978Z,4.00
2022-10-26T12:29:41.261Z,5.00
2022-10-26T12:32:23.528Z,7.85
2022-10-26T12:35:24.761Z,5.10
2022-10-26T12:37:53.622Z,3.90
2022-10-26T12:40:45.207Z,2.78
2022-10-26T12:43:42.651Z,3.78
2022-10-26T12:46:43.079Z,4.40
2022-10-26T12:49:41.092Z,4.38
2022-10-26T12:52:20.731Z,2.75
2022-10-26T12:54:53.532Z,4.55
2022-10-26T12:57:24.943Z,4.68
2022-10-26T12:59:55.703Z,3.42
2022-10-26T13:02:39.016Z,3.53
2022-10-26T13:05:24.786Z,2.97
2022-10-26T13:07:53.543Z,3.97
2022-10-26T13:10:22.505Z,4.97
2022-10-26T13:12:52.142Z,3.95
2022-10-26T13:15:21.592Z,3.40
2022-10-26T13:17:54.999Z,3.78
2022-10-26T13:20:22.418Z,4.38
2022-10-26T13:22:50.284Z,3.75
2022-10-26T13:25:22.974Z,4.32
2022-10-26T13:27:58.906Z,4.47
2022-10-26T13:30:44.172Z,3.58
2022-10-26T13:33:34.917Z,4.65
2022-10-26T13:36:03.469Z,4.82
2022-10-26T13:38:33.331Z,4.13
2022-10-26T13:43:29.555Z,3.75
2022-10-26T13:45:59.826Z,3.60
2022-10-26T13:48:31.192Z,6.68
2022-10-26T13:51:01.165Z,4.35
2022-10-26T13:53:35.529Z,5.05
2022-10-26T13:56:07.489Z,5.18
2022-10-26T13:58:40.689Z,4.07
2022-10-26T14:01:16.656Z,4.40
2022-10-26T14:03:44.476Z,3.53
2022-10-26T14:06:16.222Z,3.97
2022-10-26T14:08:46.223Z,3.70
2022-10-26T14:11:14.567Z,6.55
2022-10-26T14:13:43.441Z,5.40
2022-10-26T14:16:14.230Z,4.72
2022-10-26T14:18:44.707Z,2.75
2022-10-26T14:21:16.099Z,4.32
2022-10-26T14:23:47.132Z,5.88
2022-10-26T14:26:20.393Z,3.72
2022-10-26T14:28:51.468Z,5.43
2022-10-26T14:31:23.551Z,7.20
2022-10-26T14:33:50.946Z,7.00
2022-10-26T14:36:18.859Z,4.68
2022-10-26T14:38:47.510Z,4.72
2022-10-26T14:41:16.623Z,3.38
2022-10-26T14:43:44.882Z,3.20
2022-10-26T14:46:15.593Z,6.43
2022-10-26T14:48:44.835Z,3.17
2022-10-26T14:51:16.503Z,3.17
2022-10-26T14:53:49.199Z,5.15
2022-10-26T14:56:22.472Z,10.85
2022-10-26T14:58:50.000Z,5.43
2022-10-26T15:01:36.724Z,6.53
2022-10-26T15:04:05.495Z,9.00
2022-10-26T15:06:35.255Z,5.38
2022-10-26T15:09:04.620Z,5.60
2022-10-26T15:11:33.213Z,7.60
2022-10-26T15:14:00.671Z,7.68
2022-10-26T15:16:28.901Z,8.80
2022-10-26T15:18:59.338Z,9.43
2022-10-26T15:21:27.384Z,7.00
2022-10-26T15:23:55.633Z,7.38
2022-10-26T15:26:23.039Z,8.77
2022-10-26T15:28:50.776Z,6.70
2022-10-26T15:31:32.894Z,9.43
2022-10-26T15:34:15.272Z,7.45
2022-10-26T15:36:43.438Z,5.03
2022-10-26T15:39:11.566Z,6.00
2022-10-26T15:41:41.565Z,7.70
2022-10-26T15:44:16.119Z,7.15
2022-10-26T15:46:43.782Z,6.43
2022-10-26T15:49:17.110Z,6.07
2022-10-26T15:51:45.784Z,9.30
2022-10-26T15:54:13.362Z,11.55
2022-10-26T15:56:43.578Z,6.50
2022-10-26T15:59:17.769Z,9.50
2022-10-26T16:01:45.248Z,6.85
2022-10-26T16:04:12.746Z,10.65
2022-10-26T16:06:42.502Z,12.70
2022-10-26T16:09:13.775Z,8.93
2022-10-26T16:11:41.152Z,7.68
2022-10-26T16:14:08.689Z,9.43
2022-10-26T16:16:36.088Z,8.77
2022-10-26T16:19:25.908Z,8.50
2022-10-26T16:21:52.978Z,6.38
2022-10-26T16:24:20.447Z,9.60
2022-10-26T16:26:47.909Z,6.20
2022-10-26T16:29:15.306Z,7.90
2022-10-26T16:31:42.735Z,9.80
2022-10-26T16:34:10.118Z,6.28
2022-10-26T16:36:38.577Z,9.70
2022-10-26T16:39:07.629Z,7.40
2022-10-26T16:41:35.088Z,8.30
2022-10-26T16:44:02.440Z,8.75
2022-10-26T16:46:29.879Z,7.07
2022-10-26T16:48:57.231Z,8.63
2022-10-26T16:51:26.380Z,12.13
2022-10-26T16:53:54.870Z,11.02
2022-10-26T16:56:24.429Z,7.38
2022-10-26T16:58:51.767Z,8.00
2022-10-26T17:01:20.139Z,9.35
2022-10-26T17:03:48.411Z,8.43
2022-10-26T17:06:16.496Z,10.57
2022-10-26T17:08:44.095Z,8.13
2022-10-26T17:11:12.080Z,9.13
2022-10-26T17:13:41.250Z,8.88
2022-10-26T17:16:09.642Z,9.40
2022-10-26T17:18:37.047Z,11.65
2022-10-26T17:21:04.451Z,10.20
2022-10-26T17:23:31.812Z,8.75
2022-10-26T17:26:01.523Z,8.93
2022-10-26T17:28:28.920Z,9.88
2022-10-26T17:31:04.190Z,13.07
2022-10-26T17:33:32.455Z,9.27
2022-10-26T17:35:59.755Z,9.05
2022-10-26T17:38:27.102Z,9.60
2022-10-26T17:40:54.445Z,9.63
2022-10-26T17:43:21.794Z,14.10
2022-10-26T17:45:49.138Z,8.07
2022-10-26T17:48:17.831Z,10.10
2022-10-26T17:50:45.564Z,12.38
2022-10-26T17:53:12.944Z,12.45
2022-10-26T17:55:40.292Z,9.35
2022-10-26T17:58:07.704Z,10.75
2022-10-26T18:00:35.095Z,11.27
2022-10-26T18:03:02.448Z,11.02
2022-10-26T18:05:32.204Z,12.88
2022-10-26T18:07:59.612Z,16.75
2022-10-26T18:10:37.650Z,13.02
2022-10-26T18:13:05.692Z,16.20
2022-10-26T18:15:35.423Z,19.40
2022-10-26T18:18:02.763Z,15.05
2022-10-26T18:20:31.467Z,12.60
2022-10-26T18:22:58.829Z,12.30
2022-10-26T18:25:26.390Z,12.60
2022-10-26T18:27:53.974Z,12.93
2022-10-26T18:30:21.697Z,10.65
2022-10-26T18:32:49.803Z,9.40
2022-10-26T18:35:17.603Z,10.80
2022-10-26T18:37:46.400Z,14.05
2022-10-26T18:40:14.075Z,11.57
2022-10-26T18:42:41.439Z,9.52
2022-10-26T18:45:09.044Z,11.50
2022-10-26T18:47:36.394Z,9.05
2022-10-26T18:50:03.720Z,10.02
2022-10-26T18:52:31.120Z,8.32
2022-10-26T18:54:59.882Z,9.45
2022-10-26T18:57:28.795Z,9.65
2022-10-26T18:59:56.199Z,9.45
2022-10-26T19:02:23.571Z,12.98
2022-10-26T19:04:53.030Z,13.48
2022-10-26T19:07:20.692Z,10.15
2022-10-26T19:09:48.040Z,10.10
2022-10-26T19:12:16.736Z,13.50
2022-10-26T19:14:44.147Z,10.10
2022-10-26T19:17:11.513Z,10.32
2022-10-26T19:19:39.068Z,11.35
2022-10-26T19:22:06.477Z,12.27
2022-10-26T19:24:33.874Z,12.30
2022-10-26T19:27:01.265Z,10.50
2022-10-26T19:29:30.136Z,10.25
2022-10-26T19:31:57.532Z,13.23
2022-10-26T19:34:24.953Z,6.85
2022-10-26T19:36:52.266Z,9.35
2022-10-26T19:39:19.669Z,12.30
2022-10-26T19:41:47.414Z,10.32
2022-10-26T19:44:15.728Z,12.13
2022-10-26T19:46:45.343Z,13.82
2022-10-26T19:49:13.468Z,14.13
2022-10-26T19:51:40.894Z,16.70
2022-10-26T19:54:08.597Z,19.73
2022-10-26T19:56:36.614Z,12.43
2022-10-26T19:59:04.074Z,13.05
2022-10-26T20:01:31.509Z,12.00
2022-10-26T20:04:02.178Z,11.65
2022-10-26T20:06:30.627Z,9.88
2022-10-26T20:08:58.024Z,10.15
2022-10-26T20:11:25.389Z,10.77
2022-10-26T20:13:52.730Z,15.02
2022-10-26T20:16:20.101Z,11.38
2022-10-26T20:18:49.006Z,12.07
2022-10-26T20:21:18.231Z,11.85
2022-10-26T20:23:45.653Z,9.57
2022-10-26T20:26:18.115Z,15.35
2022-10-26T20:28:47.629Z,15.85
2022-10-26T20:31:15.064Z,13.18
2022-10-26T20:33:42.508Z,15.23
2022-10-26T20:36:09.942Z,13.70
2022-10-26T20:38:39.433Z,13.38
2022-10-26T20:41:09.956Z,14.98
2022-10-26T20:43:39.355Z,10.68
2022-10-26T20:46:07.156Z,11.35
2022-10-26T20:48:34.850Z,10.35
2022-10-26T20:51:04.696Z,14.85
2022-10-26T20:53:35.000Z,12.00
2022-10-26T20:56:05.162Z,10.43
2022-10-26T20:58:37.224Z,8.80
2022-10-26T21:01:06.143Z,8.82
2022-10-26T21:03:33.562Z,10.30
2022-10-26T21:06:00.973Z,12.77
2022-10-26T21:08:28.437Z,9.48
2022-10-26T21:10:55.836Z,16.40
2022-10-26T21:13:24.522Z,7.85
2022-10-26T21:15:51.895Z,11.50
2022-10-26T21:18:19.236Z,9.57
2022-10-26T21:20:46.655Z,11.85
2022-10-26T21:23:14.049Z,10.65
2022-10-26T21:25:41.426Z,14.07
2022-10-26T21:28:08.772Z,10.10
2022-10-26T21:30:37.470Z,14.82
2022-10-26T21:33:04.868Z,13.27
2022-10-26T21:35:32.204Z,13.30
2022-10-26T21:37:59.547Z,11.85
2022-10-26T21:40:27.011Z,11.75
2022-10-26T21:42:54.372Z,13.18
2022-10-26T21:45:21.738Z,9.63
2022-10-26T21:47:53.028Z,9.25
2022-10-26T21:50:20.475Z,12.70
2022-10-26T21:52:47.940Z,12.30
2022-10-26T21:55:15.554Z,12.48
2022-10-26T21:57:42.901Z,11.60
2022-10-26T22:00:10.596Z,9.38
2022-10-26T22:02:37.986Z,9.20
2022-10-26T22:05:07.374Z,10.90
2022-10-26T22:07:34.750Z,12.57
2022-10-26T22:10:16.506Z,14.85
2022-10-26T22:12:43.887Z,9.38
2022-10-26T22:15:11.458Z,8.82
2022-10-26T22:17:39.588Z,11.82
2022-10-26T22:20:09.625Z,14.15
2022-10-26T22:22:37.031Z,10.55
2022-10-26T22:25:05.635Z,11.38
2022-10-26T22:27:33.011Z,12.43
2022-10-26T22:30:00.326Z,9.10
2022-10-26T22:32:27.662Z,9.40
2022-10-26T22:35:10.389Z,11.02
2022-10-26T22:37:45.446Z,9.60
2022-10-26T22:40:13.111Z,12.85
2022-10-26T22:42:40.499Z,8.43
2022-10-26T22:45:08.418Z,8.85
2022-10-26T22:47:35.774Z,10.85
2022-10-26T22:50:03.184Z,10.32
2022-10-26T22:52:30.543Z,11.35
2022-10-26T22:54:59.246Z,11.30
2022-10-26T22:57:26.579Z,12.35
2022-10-26T22:59:54.246Z,10.45
2022-10-26T23:02:21.667Z,12.30
2022-10-26T23:04:49.090Z,12.48
2022-10-26T23:07:16.450Z,11.05
2022-10-26T23:09:43.796Z,10.82
2022-10-26T23:12:12.505Z,10.55
2022-10-26T23:14:39.883Z,9.98
2022-10-26T23:17:07.241Z,9.43
2022-10-26T23:19:34.632Z,9.85
2022-10-26T23:22:02.032Z,12.43
2022-10-26T23:24:29.408Z,10.07
2022-10-26T23:26:56.751Z,12.68
2022-10-26T23:29:25.444Z,9.73
2022-10-26T23:31:52.833Z,11.20
2022-10-26T23:34:20.262Z,9.43
2022-10-26T23:36:48.652Z,10.15
2022-10-26T23:39:15.986Z,14.90
2022-10-26T23:41:43.335Z,10.75
2022-10-26T23:44:10.669Z,14.82
2022-10-26T23:46:39.413Z,10.52
2022-10-26T23:49:06.757Z,13.30
2022-10-26T23:51:34.122Z,10.93
2022-10-26T23:54:01.495Z,10.20
2022-10-26T23:56:28.834Z,11.40
2022-10-26T23:58:56.204Z,10.02
